createdAt,value
2022-11-06T00:00:00.000Z,81.42
2022-11-06T00:15:00.000Z,81.53
2022-11-06T00:30:00.000Z,81.21
2022-11-06T00:45:00.000Z,81.14
2022-11-06T01:00:00.000Z,81.22
2022-11-06T01:15:00.000Z,81.16
2022-11-06T01:30:00.000Z,81.13
2022-11-06T01:45:00.000Z,81.02
2022-11-06T02:00:00.000Z,81.27
2022-11-06T02:15:00.000Z,81.31
2022-11-06T02:45:00.000Z,81.63
2022-11-06T02:45:00.000Z,81.57
2022-11-06T03:00:00.000Z,81.57
2022-11-06T03:15:00.000Z,81.58
2022-11-06T03:45:00.000Z,82.4
2022-11-06T03:45:00.000Z,82.44
2022-11-06T04:00:00.000Z,82.14
2022-11-06T04:15:00.000Z,81.05
2022-11-06T04:30:00.000Z,81.88
2022-11-06T04:45:00.000Z,82.33
2022-11-06T05:00:00.000Z,82.78
2022-11-06T05:15:00.000Z,83.06
2022-11-06T05:30:00.000Z,82.79
2022-11-06T05:45:00.000Z,81.21
2022-11-06T06:00:00.000Z,80.57
2022-11-06T06:15:00.000Z,81.5
2022-11-06T06:30:00.000Z,82.67
2022-11-06T06:45:00.000Z,80.66
2022-11-06T07:00:00.000Z,78.14
2022-11-06T07:15:00.000Z,80.38
2022-11-06T07:30:00.000Z,82.14
2022-11-06T07:45:00.000Z,82.56
2022-11-06T08:00:00.000Z,83.23
2022-11-06T08:15:00.000Z,82.81
2022-11-06T08:30:00.000Z,81.51
2022-11-06T08:45:00.000Z,69.99
2022-11-06T09:00:00.000Z,60.53
2022-11-06T09:15:00.000Z,57.25
2022-11-06T09:30:00.000Z,56.27
2022-11-06T09:45:00.000Z,54.64
2022-11-06T10:00:00.000Z,51.03
2022-11-06T10:30:00.000Z,52.9
2022-11-06T10:30:00.000Z,51.7
2022-11-06T10:45:00.000Z,50.55
2022-11-06T11:00:00.000Z,51.96
2022-11-06T11:15:00.000Z,51.28
2022-11-06T11:30:00.000Z,51.92
2022-11-06T11:45:00.000Z,52.92
2022-11-06T12:00:00.000Z,53.01
2022-11-06T12:15:00.000Z,52.76
2022-11-06T12:30:00.000Z,54.96
2022-11-06T12:45:00.000Z,54.61
2022-11-06T13:00:00.000Z,56.51
2022-11-06T13:15:00.000Z,65.72
2022-11-06T13:30:00.000Z,68.73
2022-11-06T13:45:00.000Z,69.77
2022-11-06T14:00:00.000Z,70.48
2022-11-06T14:15:00.000Z,71.67
2022-11-06T14:30:00.000Z,73.18
2022-11-06T14:45:00.000Z,74.31
2022-11-06T15:00:00.000Z,75.04
2022-11-06T15:15:00.000Z,75.56
2022-11-06T15:30:00.000Z,76.14
2022-11-06T15:45:00.000Z,78.75
2022-11-06T16:00:00.000Z,79.65
2022-11-06T16:15:00.000Z,80.43
2022-11-06T16:30:00.000Z,81.22
2022-11-06T16:45:00.000Z,82.13
2022-11-06T17:00:00.000Z,82.75
2022-11-06T17:15:00.000Z,82.47
2022-11-06T17:30:00.000Z,81.71
2022-11-06T17:45:00.000Z,79.67
2022-11-06T18:00:00.000Z,78.55
2022-11-06T18:15:00.000Z,76.61
2022-11-06T18:30:00.000Z,76.25
2022-11-06T18:45:00.000Z,75.44
2022-11-06T19:00:00.000Z,74.19
2022-11-06T19:15:00.000Z,73.53
2022-11-06T19:30:00.000Z,72.99
2022-11-06T19:45:00.000Z,72.54
2022-11-06T20:00:00.000Z,72.22
2022-11-06T20:15:00.000Z,71.72
2022-11-06T20:30:00.000Z,74.24
2022-11-06T20:45:00.000Z,77.31
2022-11-06T21:00:00.000Z,78.64
2022-11-06T21:15:00.000Z,79.26
2022-11-06T21:30:00.000Z,80.44
2022-11-06T21:45:00.000Z,80.1
2022-11-06T22:00:00.000Z,80.02
2022-11-06T22:15:00.000Z,79.45
2022-11-06T22:30:00.000Z,78.79
2022-11-06T22:45:00.000Z,74.89
2022-11-06T23:00:00.000Z,71.16
2022-11-06T23:15:00.000Z,69.58
2022-11-06T23:30:00.000Z,69.07
2022-11-06T23:45:00.000Z,68.68
